createdAt,value
2023-05-01T00:01:20.150Z,10.27
2023-05-01T00:03:48.119Z,10.26
2023-05-01T00:06:16.127Z,10.07
2023-05-01T00:08:43.993Z,10.07
2023-05-01T00:11:12.642Z,9.76
2023-05-01T00:13:40.451Z,10.15
2023-05-01T00:16:09.367Z,10.02
2023-05-01T00:18:37.720Z,10.19
2023-05-01T00:21:05.584Z,9.52
2023-05-01T00:23:33.489Z,9.39
2023-05-01T00:26:01.210Z,8.87
2023-05-01T00:28:29.239Z,9.24
2023-05-01T00:30:57.816Z,9.60
2023-05-01T00:33:25.650Z,9.71
2023-05-01T00:35:53.381Z,9.59
2023-05-01T00:38:21.244Z,8.92
2023-05-01T00:40:49.004Z,9.38
2023-05-01T00:43:16.891Z,9.63
2023-05-01T00:45:45.549Z,9.68
2023-05-01T00:48:13.515Z,9.68
2023-05-01T00:50:41.433Z,9.30
2023-05-01T00:53:09.200Z,9.42
2023-05-01T00:55:36.933Z,9.20
2023-05-01T00:58:04.782Z,8.41
2023-05-01T01:00:32.744Z,9.26
2023-05-01T01:03:01.092Z,9.22
2023-05-01T01:05:28.968Z,8.99
2023-05-01T01:07:56.662Z,9.37
2023-05-01T01:10:33.579Z,9.16
2023-05-01T01:13:12.319Z,8.86
2023-05-01T01:15:44.753Z,8.95
2023-05-01T01:18:27.425Z,9.17
2023-05-01T01:21:13.089Z,9.14
2023-05-01T01:24:02.874Z,9.32
2023-05-01T01:26:45.983Z,9.17
2023-05-01T01:29:31.896Z,9.22
2023-05-01T01:32:20.690Z,9.34
2023-05-01T01:34:50.637Z,9.14
2023-05-01T01:37:29.669Z,9.16
2023-05-01T01:40:13.343Z,9.03
2023-05-01T01:42:43.340Z,8.54
2023-05-01T01:45:17.704Z,8.82
2023-05-01T01:47:45.645Z,8.02
2023-05-01T01:50:13.671Z,8.30
2023-05-01T01:52:41.545Z,8.58
2023-05-01T01:55:11.298Z,8.59
2023-05-01T01:57:39.935Z,7.54
2023-05-01T02:00:11.121Z,8.29
2023-05-01T02:02:44.885Z,8.07
2023-05-01T02:05:15.528Z,7.19
2023-05-01T02:07:43.804Z,7.84
2023-05-01T02:10:12.841Z,8.06
2023-05-01T02:12:41.675Z,8.09
2023-05-01T02:15:09.654Z,8.09
2023-05-01T02:17:38.697Z,8.23
2023-05-01T02:20:06.756Z,8.43
2023-05-01T02:22:34.651Z,8.46
2023-05-01T02:25:02.444Z,8.18
2023-05-01T02:27:32.315Z,8.15
2023-05-01T02:30:00.054Z,8.17
2023-05-01T02:32:28.682Z,8.29
2023-05-01T02:34:57.457Z,8.36
2023-05-01T02:37:25.519Z,7.89
2023-05-01T02:39:53.365Z,7.18
2023-05-01T02:42:21.193Z,7.91
2023-05-01T02:45:01.754Z,7.99
2023-05-01T02:47:33.302Z,8.18
2023-05-01T02:50:01.109Z,7.62
2023-05-01T02:52:29.230Z,7.11
2023-05-01T02:55:12.693Z,7.85
2023-05-01T02:57:41.387Z,7.49
2023-05-01T03:00:13.939Z,7.73
2023-05-01T03:02:42.394Z,7.74
2023-05-01T03:05:10.256Z,7.82
2023-05-01T03:07:38.037Z,7.15
2023-05-01T03:10:07.867Z,7.42
2023-05-01T03:12:35.755Z,7.31
2023-05-01T03:15:03.681Z,7.20
2023-05-01T03:17:31.476Z,7.27
2023-05-01T03:19:59.252Z,7.12
2023-05-01T03:22:29.669Z,6.98
2023-05-01T03:24:57.447Z,6.87
2023-05-01T03:27:25.244Z,7.01
2023-05-01T03:29:55.558Z,6.71
2023-05-01T03:32:24.907Z,6.99
2023-05-01T03:34:54.336Z,7.11
2023-05-01T03:37:22.617Z,7.48
2023-05-01T03:39:51.812Z,7.52
2023-05-01T03:42:38.209Z,7.09
2023-05-01T03:45:13.586Z,7.54
2023-05-01T03:47:41.546Z,7.70
2023-05-01T03:50:11.218Z,7.72
2023-05-01T03:52:42.097Z,7.82
2023-05-01T03:55:10.066Z,7.77
2023-05-01T03:57:47.465Z,7.49
2023-05-01T04:00:15.358Z,7.78
2023-05-01T04:02:43.215Z,7.80
2023-05-01T04:05:15.123Z,8.05
2023-05-01T04:07:48.389Z,8.00
2023-05-01T04:10:17.165Z,8.16
2023-05-01T04:12:52.108Z,8.33
2023-05-01T04:15:19.874Z,8.33
2023-05-01T04:17:48.597Z,8.25
2023-05-01T04:20:19.203Z,8.32
2023-05-01T04:22:47.810Z,8.42
2023-05-01T04:25:15.709Z,8.54
2023-05-01T04:27:45.411Z,8.43
2023-05-01T04:30:15.745Z,8.49
2023-05-01T04:32:44.293Z,8.64
2023-05-01T04:35:12.494Z,8.72
2023-05-01T04:37:43.715Z,8.81
2023-05-01T04:40:12.306Z,8.72
2023-05-01T04:42:41.350Z,8.72
2023-05-01T04:45:12.918Z,8.69
2023-05-01T04:47:41.504Z,8.60
2023-05-01T04:50:09.828Z,8.86
2023-05-01T04:52:37.683Z,8.75
2023-05-01T04:55:06.167Z,8.93
2023-05-01T04:57:38.001Z,8.88
2023-05-01T05:00:08.600Z,9.07
2023-05-01T05:02:46.517Z,9.06
2023-05-01T05:05:15.998Z,9.14
2023-05-01T05:07:43.917Z,9.23
2023-05-01T05:10:26.769Z,9.28
2023-05-01T05:13:12.010Z,9.47
2023-05-01T05:15:40.439Z,9.34
2023-05-01T05:18:10.859Z,9.36
2023-05-01T05:20:39.951Z,9.31
2023-05-01T05:23:08.584Z,9.33
2023-05-01T05:25:36.509Z,9.24
2023-05-01T05:28:04.612Z,9.29
2023-05-01T05:30:32.610Z,8.99
2023-05-01T05:33:01.795Z,9.13
2023-05-01T05:35:29.759Z,9.41
2023-05-01T05:37:57.528Z,9.40
2023-05-01T05:40:27.803Z,9.08
2023-05-01T05:42:58.075Z,9.38
2023-05-01T05:45:27.942Z,9.44
2023-05-01T05:47:55.811Z,9.43
2023-05-01T05:50:24.195Z,9.98
2023-05-01T05:52:52.305Z,10.02
2023-05-01T05:55:20.925Z,10.31
2023-05-01T05:58:01.676Z,10.19
2023-05-01T06:00:30.114Z,10.07
2023-05-01T06:03:01.316Z,10.49
2023-05-01T06:05:31.015Z,10.13
2023-05-01T06:07:58.882Z,10.29
2023-05-01T06:10:26.641Z,10.25
2023-05-01T06:12:59.794Z,10.74
2023-05-01T06:15:43.978Z,10.93
2023-05-01T06:18:12.689Z,10.86
2023-05-01T06:20:40.628Z,11.18
2023-05-01T06:23:10.101Z,11.37
2023-05-01T06:25:56.622Z,10.97
2023-05-01T06:28:24.605Z,11.59
2023-05-01T06:30:52.458Z,11.90
2023-05-01T06:33:21.866Z,12.14
2023-05-01T06:36:00.891Z,12.33
2023-05-01T06:38:28.827Z,12.21
2023-05-01T06:40:56.683Z,12.34
2023-05-01T06:43:28.161Z,12.13
2023-05-01T06:45:56.599Z,12.39
2023-05-01T06:48:24.390Z,12.20
2023-05-01T06:50:52.418Z,12.75
2023-05-01T06:53:20.636Z,12.94
2023-05-01T06:55:48.339Z,12.13
2023-05-01T06:58:23.835Z,12.80
2023-05-01T07:00:53.957Z,13.01
2023-05-01T07:03:21.855Z,13.22
2023-05-01T07:05:49.640Z,13.60
2023-05-01T07:08:17.474Z,13.76
2023-05-01T07:10:45.304Z,13.96
2023-05-01T07:13:13.117Z,13.56
2023-05-01T07:15:40.885Z,13.96
2023-05-01T07:18:10.062Z,14.32
2023-05-01T07:20:37.905Z,14.63
2023-05-01T07:23:07.434Z,14.15
2023-05-01T07:25:41.303Z,14.27
2023-05-01T07:28:09.227Z,14.70
2023-05-01T07:30:37.473Z,14.90
2023-05-01T07:33:07.940Z,15.20
2023-05-01T07:35:35.876Z,15.27
2023-05-01T07:38:03.718Z,15.71
2023-05-01T07:40:33.660Z,15.56
2023-05-01T07:43:01.653Z,15.67
2023-05-01T07:45:29.579Z,16.05
2023-05-01T07:47:57.326Z,16.30
2023-05-01T07:50:26.083Z,16.44
2023-05-01T07:52:53.874Z,15.66
2023-05-01T07:55:22.755Z,15.67
2023-05-01T07:57:50.651Z,16.17
2023-05-01T08:00:18.876Z,16.85
2023-05-01T08:02:46.678Z,16.88
2023-05-01T08:05:14.505Z,17.44
2023-05-01T08:07:42.389Z,18.01
2023-05-01T08:10:10.603Z,18.11
2023-05-01T08:12:38.425Z,18.22
2023-05-01T08:15:06.889Z,18.38
2023-05-01T08:17:37.658Z,17.60
2023-05-01T08:20:06.193Z,17.66
2023-05-01T08:22:34.011Z,18.00
2023-05-01T08:25:01.759Z,17.70
2023-05-01T08:27:29.519Z,17.13
2023-05-01T08:29:57.523Z,17.97
2023-05-01T08:32:25.527Z,17.72
2023-05-01T08:34:53.426Z,17.45
2023-05-01T08:37:21.142Z,17.96
2023-05-01T08:39:48.924Z,18.18
2023-05-01T08:42:17.194Z,17.86
2023-05-01T08:44:44.984Z,17.59
2023-05-01T08:47:16.060Z,18.36
2023-05-01T08:49:44.608Z,18.34
2023-05-01T08:52:12.923Z,18.87
2023-05-01T08:54:43.529Z,19.32
2023-05-01T08:57:12.348Z,18.19
2023-05-01T08:59:40.296Z,19.46
2023-05-01T09:02:09.789Z,18.89
2023-05-01T09:04:41.513Z,19.54
2023-05-01T09:07:10.135Z,19.39
2023-05-01T09:09:37.994Z,19.28
2023-05-01T09:12:27.609Z,19.81
2023-05-01T09:14:56.652Z,20.26
2023-05-01T09:17:24.450Z,19.26
2023-05-01T09:19:52.336Z,19.57
2023-05-01T09:22:20.279Z,19.61
2023-05-01T09:24:48.114Z,18.99
2023-05-01T09:27:16.040Z,19.06
2023-05-01T09:29:45.753Z,19.89
2023-05-01T09:32:23.564Z,20.03
2023-05-01T09:34:52.039Z,18.62
2023-05-01T09:37:29.803Z,19.93
2023-05-01T09:40:05.760Z,20.52
2023-05-01T09:42:36.294Z,20.17
2023-05-01T09:45:06.109Z,20.01
2023-05-01T09:47:34.399Z,19.18
2023-05-01T09:50:02.269Z,20.02
2023-05-01T09:52:30.458Z,20.56
2023-05-01T09:55:17.536Z,19.28
2023-05-01T09:57:46.611Z,20.05
2023-05-01T10:00:15.537Z,20.27
2023-05-01T10:02:45.281Z,20.63
2023-05-01T10:05:13.169Z,20.77
2023-05-01T10:07:56.041Z,20.72
2023-05-01T10:10:23.996Z,20.85
2023-05-01T10:12:51.742Z,21.07
2023-05-01T10:15:26.261Z,21.81
2023-05-01T10:17:55.548Z,21.79
2023-05-01T10:20:23.467Z,21.28
2023-05-01T10:22:51.505Z,20.95
2023-05-01T10:25:19.289Z,20.96
2023-05-01T10:27:47.140Z,20.85
2023-05-01T10:30:14.873Z,21.49
2023-05-01T10:32:42.928Z,21.36
2023-05-01T10:35:19.249Z,21.24
2023-05-01T10:38:07.061Z,21.07
2023-05-01T10:40:41.083Z,20.66
2023-05-01T10:43:31.374Z,21.60
2023-05-01T10:46:08.265Z,21.24
2023-05-01T10:48:39.461Z,21.33
2023-05-01T10:51:09.670Z,21.87
2023-05-01T10:53:41.289Z,21.39
2023-05-01T10:56:38.075Z,21.44
2023-05-01T10:59:06.091Z,21.36
2023-05-01T11:01:34.527Z,21.45
2023-05-01T11:04:08.213Z,20.50
2023-05-01T11:06:36.519Z,20.58
2023-05-01T11:09:42.597Z,21.23
2023-05-01T11:12:11.503Z,21.50
2023-05-01T11:14:55.793Z,20.94
2023-05-01T11:17:41.999Z,19.81
2023-05-01T11:20:14.432Z,20.23
2023-05-01T11:22:46.388Z,20.39
2023-05-01T11:25:27.851Z,19.96
2023-05-01T11:27:59.417Z,20.08
2023-05-01T11:30:27.236Z,19.93
2023-05-01T11:32:55.059Z,20.24
2023-05-01T11:35:27.775Z,20.71
2023-05-01T11:37:56.026Z,20.67
2023-05-01T11:40:28.386Z,21.21
2023-05-01T11:43:08.742Z,20.06
2023-05-01T11:45:37.085Z,19.99
2023-05-01T11:48:05.537Z,19.58
2023-05-01T11:50:37.041Z,19.59
2023-05-01T11:53:11.793Z,19.08
2023-05-01T11:55:40.319Z,18.29
2023-05-01T11:58:08.240Z,17.44
2023-05-01T12:00:43.145Z,17.81
2023-05-01T12:03:12.665Z,17.09
2023-05-01T12:05:44.962Z,16.51
2023-05-01T12:08:20.901Z,17.12
2023-05-01T12:10:58.607Z,16.22
2023-05-01T12:13:27.202Z,15.51
2023-05-01T12:15:55.471Z,15.45
2023-05-01T12:18:23.280Z,15.00
2023-05-01T12:20:52.335Z,15.31
2023-05-01T12:23:35.750Z,15.79
2023-05-01T12:26:16.478Z,15.81
2023-05-01T12:28:58.255Z,15.47
2023-05-01T12:31:26.649Z,15.38
2023-05-01T12:34:06.079Z,15.18
2023-05-01T12:36:35.082Z,13.63
2023-05-01T12:39:11.747Z,15.03
2023-05-01T12:41:50.073Z,15.28
2023-05-01T12:44:19.261Z,14.89
2023-05-01T12:46:57.010Z,15.47
2023-05-01T12:49:25.193Z,15.43
2023-05-01T12:51:54.424Z,15.85
2023-05-01T12:54:22.514Z,16.07
2023-05-01T12:56:56.063Z,16.06
2023-05-01T12:59:25.448Z,15.24
2023-05-01T13:02:00.603Z,15.31
2023-05-01T13:04:28.869Z,15.63
2023-05-01T13:06:57.080Z,15.99
2023-05-01T13:09:27.318Z,16.15
2023-05-01T13:11:58.150Z,16.26
2023-05-01T13:14:26.227Z,16.24
2023-05-01T13:16:54.481Z,16.19
2023-05-01T13:19:29.246Z,16.37
2023-05-01T13:21:58.106Z,16.73
2023-05-01T13:24:42.257Z,16.65
2023-05-01T13:27:10.113Z,16.70
2023-05-01T13:29:45.646Z,17.24
2023-05-01T13:32:13.620Z,17.65
2023-05-01T13:34:42.328Z,17.77
2023-05-01T13:37:13.749Z,17.39
2023-05-01T13:39:44.983Z,17.45
2023-05-01T13:42:13.227Z,17.68
2023-05-01T13:44:45.579Z,17.58
2023-05-01T13:47:16.634Z,17.62
2023-05-01T13:49:45.384Z,16.84
2023-05-01T13:52:17.620Z,16.88
2023-05-01T13:54:45.834Z,16.97
2023-05-01T13:57:13.828Z,16.86
2023-05-01T13:59:42.779Z,17.26
2023-05-01T14:02:16.504Z,17.43
2023-05-01T14:04:44.398Z,17.43
2023-05-01T14:07:15.293Z,17.82
2023-05-01T14:09:43.068Z,17.84
2023-05-01T14:12:10.953Z,18.04
2023-05-01T14:14:48.004Z,17.59
2023-05-01T14:17:16.068Z,16.86
2023-05-01T14:19:44.022Z,16.93
2023-05-01T14:22:11.967Z,17.02
2023-05-01T14:24:41.079Z,17.07
2023-05-01T14:27:11.614Z,17.17
2023-05-01T14:29:39.337Z,17.83
2023-05-01T14:32:07.292Z,18.43
2023-05-01T14:34:35.025Z,18.81
2023-05-01T14:37:02.898Z,18.41
2023-05-01T14:39:32.444Z,18.61
2023-05-01T14:42:00.375Z,18.50
2023-05-01T14:44:30.825Z,18.11
2023-05-01T14:46:59.336Z,18.50
2023-05-01T14:49:27.170Z,18.73
2023-05-01T14:51:55.023Z,18.33
2023-05-01T14:54:22.738Z,18.05
2023-05-01T14:56:50.671Z,18.46
2023-05-01T14:59:18.388Z,18.33
2023-05-01T15:01:46.252Z,19.01
2023-05-01T15:04:14.441Z,19.26
2023-05-01T15:06:42.558Z,19.74
2023-05-01T15:09:10.442Z,19.70
2023-05-01T15:11:38.244Z,19.88
2023-05-01T15:14:05.962Z,19.48
2023-05-01T15:16:33.940Z,19.63
2023-05-01T15:19:01.798Z,19.44
2023-05-01T15:21:29.594Z,19.86
2023-05-01T15:23:57.310Z,19.36
2023-05-01T15:26:25.159Z,18.99
2023-05-01T15:28:53.014Z,19.06
2023-05-01T15:31:21.078Z,18.81
2023-05-01T15:33:48.793Z,18.94
2023-05-01T15:36:16.761Z,18.06
2023-05-01T15:38:45.172Z,18.68
2023-05-01T15:41:13.020Z,18.60
2023-05-01T15:43:41.026Z,19.54
2023-05-01T15:46:09.072Z,18.47
2023-05-01T15:48:36.883Z,17.96
2023-05-01T15:51:04.939Z,18.74
2023-05-01T15:53:32.645Z,18.44
2023-05-01T15:56:00.464Z,18.88
2023-05-01T15:58:28.203Z,18.59
2023-05-01T16:00:55.970Z,18.16
2023-05-01T16:03:24.528Z,18.00
2023-05-01T16:05:52.517Z,18.80
2023-05-01T16:08:21.097Z,18.69
2023-05-01T16:10:49.183Z,18.47
2023-05-01T16:13:16.996Z,18.40
2023-05-01T16:15:44.758Z,18.06
2023-05-01T16:18:23.751Z,18.40
2023-05-01T16:20:55.343Z,18.83
2023-05-01T16:23:24.949Z,18.83
2023-05-01T16:25:52.630Z,19.18
2023-05-01T16:28:20.442Z,19.29
2023-05-01T16:30:48.784Z,19.31
2023-05-01T16:33:19.299Z,19.28
2023-05-01T16:35:50.449Z,19.31
2023-05-01T16:38:18.601Z,19.29
2023-05-01T16:40:47.114Z,19.27
2023-05-01T16:43:14.934Z,19.10
2023-05-01T16:45:42.649Z,19.09
2023-05-01T16:48:10.688Z,18.79
2023-05-01T16:50:41.543Z,18.21
2023-05-01T16:53:09.376Z,18.48
2023-05-01T16:55:37.283Z,18.18
2023-05-01T16:58:05.117Z,18.28
2023-05-01T17:00:32.901Z,17.59
2023-05-01T17:03:00.830Z,17.73
2023-05-01T17:05:28.630Z,17.83
2023-05-01T17:07:56.461Z,17.85
2023-05-01T17:10:24.170Z,17.69
2023-05-01T17:12:51.956Z,17.62
2023-05-01T17:15:19.732Z,17.59
2023-05-01T17:17:47.609Z,17.38
2023-05-01T17:20:15.585Z,16.95
2023-05-01T17:22:44.659Z,16.52
2023-05-01T17:25:12.487Z,16.86
2023-05-01T17:27:40.439Z,16.94
2023-05-01T17:30:08.494Z,16.84
2023-05-01T17:32:37.666Z,16.87
2023-05-01T17:35:06.208Z,16.73
2023-05-01T17:37:34.167Z,16.72
2023-05-01T17:40:02.654Z,16.56
2023-05-01T17:42:30.713Z,16.55
2023-05-01T17:44:58.477Z,16.43
2023-05-01T17:47:26.490Z,16.24
2023-05-01T17:49:54.369Z,16.31
2023-05-01T17:52:22.573Z,15.66
2023-05-01T17:54:50.274Z,16.14
2023-05-01T17:57:18.152Z,16.11
2023-05-01T17:59:45.920Z,16.07
2023-05-01T18:02:13.774Z,15.80
2023-05-01T18:04:41.516Z,15.46
2023-05-01T18:07:09.579Z,15.66
2023-05-01T18:09:37.516Z,15.53
2023-05-01T18:12:05.735Z,15.68
2023-05-01T18:14:33.581Z,15.48
2023-05-01T18:17:01.473Z,15.38
2023-05-01T18:19:29.378Z,15.06
2023-05-01T18:21:57.445Z,15.57
2023-05-01T18:24:26.185Z,15.26
2023-05-01T18:26:53.905Z,15.52
2023-05-01T18:29:22.924Z,15.14
2023-05-01T18:31:51.186Z,15.21
2023-05-01T18:34:19.463Z,15.35
2023-05-01T18:36:48.553Z,15.31
2023-05-01T18:39:16.417Z,15.52
2023-05-01T18:41:44.227Z,15.41
2023-05-01T18:44:12.061Z,15.60
2023-05-01T18:46:39.867Z,15.57
2023-05-01T18:49:07.735Z,15.25
2023-05-01T18:51:38.248Z,15.37
2023-05-01T18:54:07.892Z,15.38
2023-05-01T18:56:35.679Z,15.28
2023-05-01T18:59:03.499Z,14.87
2023-05-01T19:01:32.090Z,14.77
2023-05-01T19:04:00.158Z,14.85
2023-05-01T19:06:28.083Z,14.87
2023-05-01T19:08:56.016Z,13.98
2023-05-01T19:11:26.193Z,14.41
2023-05-01T19:13:54.061Z,13.85
2023-05-01T19:16:22.024Z,14.28
2023-05-01T19:18:49.935Z,14.28
2023-05-01T19:21:17.742Z,13.95
2023-05-01T19:23:46.590Z,13.38
2023-05-01T19:26:14.470Z,13.80
2023-05-01T19:28:42.433Z,13.87
2023-05-01T19:31:11.375Z,14.03
2023-05-01T19:33:40.965Z,13.95
2023-05-01T19:36:08.671Z,13.68
2023-05-01T19:38:36.513Z,13.36
2023-05-01T19:41:04.413Z,12.76
2023-05-01T19:43:32.534Z,13.01
2023-05-01T19:46:00.642Z,12.08
2023-05-01T19:48:28.560Z,12.93
2023-05-01T19:50:56.417Z,12.92
2023-05-01T19:53:24.294Z,13.21
2023-05-01T19:55:52.027Z,12.70
2023-05-01T19:58:19.924Z,12.28
2023-05-01T20:00:47.686Z,12.68
2023-05-01T20:03:16.581Z,12.70
2023-05-01T20:05:44.467Z,12.74
2023-05-01T20:08:12.864Z,11.36
2023-05-01T20:10:40.623Z,12.24
2023-05-01T20:13:10.901Z,11.86
2023-05-01T20:15:39.220Z,12.19
2023-05-01T20:18:07.143Z,12.09
2023-05-01T20:20:35.124Z,12.36
2023-05-01T20:23:12.824Z,11.45
2023-05-01T20:25:41.206Z,11.95
2023-05-01T20:28:10.427Z,12.25
2023-05-01T20:30:41.632Z,12.22
2023-05-01T20:33:09.487Z,12.26
2023-05-01T20:35:37.394Z,11.58
2023-05-01T20:38:05.218Z,12.07
2023-05-01T20:40:33.515Z,11.37
2023-05-01T20:43:01.293Z,11.23
2023-05-01T20:45:29.920Z,11.35
2023-05-01T20:47:58.511Z,11.70
2023-05-01T20:50:26.507Z,11.15
2023-05-01T20:52:55.257Z,11.38
2023-05-01T20:55:23.693Z,11.54
2023-05-01T20:57:51.665Z,11.68
2023-05-01T21:00:19.474Z,11.55
2023-05-01T21:02:47.397Z,11.29
2023-05-01T21:05:16.427Z,11.36
2023-05-01T21:07:44.214Z,11.39
2023-05-01T21:10:13.646Z,11.21
2023-05-01T21:12:41.546Z,11.32
2023-05-01T21:15:09.834Z,11.35
2023-05-01T21:17:38.351Z,9.77
2023-05-01T21:20:11.803Z,10.02
2023-05-01T21:22:40.371Z,10.35
2023-05-01T21:25:08.472Z,10.40
2023-05-01T21:27:36.920Z,10.55
2023-05-01T21:30:05.465Z,10.63
2023-05-01T21:32:34.235Z,10.24
2023-05-01T21:35:02.164Z,10.39
2023-05-01T21:37:29.949Z,10.69
2023-05-01T21:39:59.359Z,10.66
2023-05-01T21:42:30.546Z,10.76
2023-05-01T21:44:59.541Z,9.99
2023-05-01T21:47:28.005Z,9.34
2023-05-01T21:49:59.153Z,9.88
2023-05-01T21:52:28.348Z,10.21
2023-05-01T21:54:56.149Z,10.69
2023-05-01T21:57:23.949Z,9.09
2023-05-01T21:59:52.380Z,9.73
2023-05-01T22:02:20.272Z,9.92
2023-05-01T22:04:48.267Z,9.18
2023-05-01T22:07:16.640Z,9.69
2023-05-01T22:09:44.420Z,10.14
2023-05-01T22:12:12.121Z,9.60
2023-05-01T22:14:47.115Z,10.04
2023-05-01T22:17:17.567Z,10.10
2023-05-01T22:19:45.269Z,9.90
2023-05-01T22:22:13.265Z,9.95
2023-05-01T22:24:41.057Z,9.71
2023-05-01T22:27:08.921Z,9.78
2023-05-01T22:29:36.714Z,9.90
2023-05-01T22:32:05.048Z,9.78
2023-05-01T22:34:32.891Z,9.71
2023-05-01T22:37:00.600Z,9.51
2023-05-01T22:39:28.537Z,9.40
2023-05-01T22:41:56.289Z,9.49
2023-05-01T22:44:24.199Z,8.58
2023-05-01T22:46:52.128Z,9.37
2023-05-01T22:49:19.965Z,9.34
2023-05-01T22:51:47.740Z,9.36
2023-05-01T22:54:16.035Z,8.67
2023-05-01T22:56:44.040Z,8.95
2023-05-01T22:59:11.779Z,9.41
2023-05-01T23:01:39.561Z,9.00
2023-05-01T23:04:07.486Z,9.11
2023-05-01T23:06:35.747Z,9.44
2023-05-01T23:09:03.555Z,9.53
2023-05-01T23:11:32.539Z,9.33
2023-05-01T23:14:00.551Z,8.66
2023-05-01T23:16:28.489Z,8.71
2023-05-01T23:18:56.693Z,8.73
2023-05-01T23:21:24.428Z,8.85
2023-05-01T23:23:52.232Z,8.43
2023-05-01T23:26:29.399Z,8.96
2023-05-01T23:28:57.373Z,9.15
2023-05-01T23:31:29.304Z,9.05
2023-05-01T23:33:57.170Z,7.66
2023-05-01T23:36:24.891Z,8.64
2023-05-01T23:38:52.704Z,7.27
2023-05-01T23:41:20.421Z,8.56
2023-05-01T23:43:48.254Z,8.76
2023-05-01T23:46:16.151Z,8.88
2023-05-01T23:48:43.862Z,8.67
2023-05-01T23:51:11.686Z,8.03
2023-05-01T23:53:39.413Z,8.68
2023-05-01T23:56:07.391Z,8.24
2023-05-01T23:58:35.096Z,8.63
